Burroughs, Louisiana
Current Conditions -  °F | °C
As of 5:53 PM on Friday 24 Oct 2014 (Local Time) from KMLU Reporting Station
Clear Clear  
Wind Chill: 69°   Ceiling: Unl
Heat Index: 69°   Visibility: 10mi
Dew Point: 51°   Wind: 3mph
Humidity: 53%   Direction: 360°N
Pressure: 30.11"   Gusts: NA
Location:  32.1631°N, 92.1971°W
Report Text: KMLU 242253Z 36003KT 10SM CLR 21/11 A3011 RMK AO2 SLP197 T02060106
Loading
Personal Weather Stations






























Interactive Weather Map
Tropical Storm Tracking
New forecast layout! Learn more

10-Day Weather Forecast

Advertisements
Track Severe Weather on mobile